sensor_id;sensor_type;location;lat;lon;timestamp;P1;durP1;ratioP1;P2;durP2;ratioP2
13588;SDS011;6865;52.552;13.434;2023-02-20T00:01:26;4.90;;;3.00;;
13588;SDS011;6865;52.552;13.434;2023-02-20T00:03:54;3.67;;;2.60;;
13588;SDS011;6865;52.552;13.434;2023-02-20T00:06:21;6.43;;;3.03;;
13588;SDS011;6865;52.552;13.434;2023-02-20T00:08:47;6.03;;;3.20;;
13588;SDS011;6865;52.552;13.434;2023-02-20T00:11:14;7.43;;;3.10;;
13588;SDS011;6865;52.552;13.434;2023-02-20T00:13:47;5.47;;;3.07;;
13588;SDS011;6865;52.552;13.434;2023-02-20T00:16:14;6.17;;;3.30;;
13588;SDS011;6865;52.552;13.434;2023-02-20T00:18:41;7.73;;;3.60;;
13588;SDS011;6865;52.552;13.434;2023-02-20T00:21:09;4.50;;;3.20;;
13588;SDS011;6865;52.552;13.434;2023-02-20T00:23:36;6.30;;;3.47;;
13588;SDS011;6865;52.552;13.434;2023-02-20T00:26:02;6.47;;;3.47;;
13588;SDS011;6865;52.552;13.434;2023-02-20T00:28:29;7.20;;;3.67;;
13588;SDS011;6865;52.552;13.434;2023-02-20T00:30:56;7.77;;;3.87;;
13588;SDS011;6865;52.552;13.434;2023-02-20T00:33:22;9.97;;;3.80;;
13588;SDS011;6865;52.552;13.434;2023-02-20T00:35:49;6.10;;;3.63;;
13588;SDS011;6865;52.552;13.434;2023-02-20T00:38:16;9.27;;;3.80;;
13588;SDS011;6865;52.552;13.434;2023-02-20T00:40:44;6.70;;;3.80;;
13588;SDS011;6865;52.552;13.434;2023-02-20T00:43:11;7.13;;;3.57;;
13588;SDS011;6865;52.552;13.434;2023-02-20T00:45:41;6.87;;;3.97;;
13588;SDS011;6865;52.552;13.434;2023-02-20T00:48:08;9.30;;;4.67;;
13588;SDS011;6865;52.552;13.434;2023-02-20T00:50:34;7.37;;;4.17;;
13588;SDS011;6865;52.552;13.434;2023-02-20T00:53:01;5.63;;;3.90;;
13588;SDS011;6865;52.552;13.434;2023-02-20T00:55:28;6.87;;;3.60;;
13588;SDS011;6865;52.552;13.434;2023-02-20T00:57:55;6.47;;;3.47;;
13588;SDS011;6865;52.552;13.434;2023-02-20T01:00:25;6.17;;;3.60;;
13588;SDS011;6865;52.552;13.434;2023-02-20T01:02:54;6.27;;;4.37;;
13588;SDS011;6865;52.552;13.434;2023-02-20T01:05:21;6.23;;;4.03;;
13588;SDS011;6865;52.552;13.434;2023-02-20T01:07:48;7.63;;;4.63;;
13588;SDS011;6865;52.552;13.434;2023-02-20T01:10:15;5.73;;;4.00;;
13588;SDS011;6865;52.552;13.434;2023-02-20T01:12:42;7.07;;;4.27;;
13588;SDS011;6865;52.552;13.434;2023-02-20T01:15:10;6.93;;;4.10;;
13588;SDS011;6865;52.552;13.434;2023-02-20T01:17:37;6.93;;;3.97;;
13588;SDS011;6865;52.552;13.434;2023-02-20T01:20:04;7.07;;;3.97;;
13588;SDS011;6865;52.552;13.434;2023-02-20T01:22:32;6.60;;;4.07;;
13588;SDS011;6865;52.552;13.434;2023-02-20T01:24:59;6.57;;;3.97;;
13588;SDS011;6865;52.552;13.434;2023-02-20T01:27:25;6.17;;;4.13;;
13588;SDS011;6865;52.552;13.434;2023-02-20T01:29:52;6.93;;;4.03;;
13588;SDS011;6865;52.552;13.434;2023-02-20T01:32:18;6.53;;;4.23;;
13588;SDS011;6865;52.552;13.434;2023-02-20T01:34:45;6.33;;;4.20;;
13588;SDS011;6865;52.552;13.434;2023-02-20T01:37:15;6.80;;;4.00;;
13588;SDS011;6865;52.552;13.434;2023-02-20T01:39:43;8.03;;;4.13;;
13588;SDS011;6865;52.552;13.434;2023-02-20T01:42:15;8.43;;;4.00;;
13588;SDS011;6865;52.552;13.434;2023-02-20T01:44:45;6.30;;;4.20;;
13588;SDS011;6865;52.552;13.434;2023-02-20T01:47:14;6.90;;;4.47;;
13588;SDS011;6865;52.552;13.434;2023-02-20T01:49:58;7.20;;;4.50;;
13588;SDS011;6865;52.552;13.434;2023-02-20T01:52:32;7.33;;;4.57;;
13588;SDS011;6865;52.552;13.434;2023-02-20T01:57:39;5.53;;;3.90;;
13588;SDS011;6865;52.552;13.434;2023-02-20T02:00:10;6.63;;;4.50;;
13588;SDS011;6865;52.552;13.434;2023-02-20T02:02:41;8.17;;;4.20;;
13588;SDS011;6865;52.552;13.434;2023-02-20T02:05:13;6.67;;;3.90;;
13588;SDS011;6865;52.552;13.434;2023-02-20T02:07:41;7.37;;;4.30;;
13588;SDS011;6865;52.552;13.434;2023-02-20T02:10:11;7.83;;;4.17;;
13588;SDS011;6865;52.552;13.434;2023-02-20T02:12:41;6.00;;;4.27;;
13588;SDS011;6865;52.552;13.434;2023-02-20T02:15:17;7.40;;;4.80;;
13588;SDS011;6865;52.552;13.434;2023-02-20T02:17:53;7.07;;;4.40;;
13588;SDS011;6865;52.552;13.434;2023-02-20T02:21:41;9.27;;;4.70;;
13588;SDS011;6865;52.552;13.434;2023-02-20T02:24:23;8.10;;;4.70;;
13588;SDS011;6865;52.552;13.434;2023-02-20T02:33:12;6.40;;;4.47;;
13588;SDS011;6865;52.552;13.434;2023-02-20T02:39:09;6.90;;;4.20;;
13588;SDS011;6865;52.552;13.434;2023-02-20T02:41:59;8.03;;;4.27;;
13588;SDS011;6865;52.552;13.434;2023-02-20T02:50:16;9.53;;;5.00;;
13588;SDS011;6865;52.552;13.434;2023-02-20T02:52:46;8.37;;;4.80;;
13588;SDS011;6865;52.552;13.434;2023-02-20T02:55:20;8.33;;;4.80;;
13588;SDS011;6865;52.552;13.434;2023-02-20T02:57:48;6.00;;;4.43;;
13588;SDS011;6865;52.552;13.434;2023-02-20T03:00:17;9.63;;;5.23;;
13588;SDS011;6865;52.552;13.434;2023-02-20T03:05:46;7.53;;;5.10;;
13588;SDS011;6865;52.552;13.434;2023-02-20T03:08:24;7.43;;;5.17;;
13588;SDS011;6865;52.552;13.434;2023-02-20T03:11:16;8.97;;;5.30;;
13588;SDS011;6865;52.552;13.434;2023-02-20T03:16:43;7.73;;;4.90;;
13588;SDS011;6865;52.552;13.434;2023-02-20T03:19:11;9.63;;;5.73;;
13588;SDS011;6865;52.552;13.434;2023-02-20T03:21:41;8.67;;;5.13;;
13588;SDS011;6865;52.552;13.434;2023-02-20T03:24:10;8.53;;;5.07;;
13588;SDS011;6865;52.552;13.434;2023-02-20T03:26:39;8.27;;;5.47;;
13588;SDS011;6865;52.552;13.434;2023-02-20T03:29:10;7.50;;;5.30;;
13588;SDS011;6865;52.552;13.434;2023-02-20T03:31:43;7.77;;;5.50;;
13588;SDS011;6865;52.552;13.434;2023-02-20T03:34:19;7.27;;;5.00;;
13588;SDS011;6865;52.552;13.434;2023-02-20T03:37:18;8.90;;;5.70;;
13588;SDS011;6865;52.552;13.434;2023-02-20T03:40:06;7.37;;;5.07;;
13588;SDS011;6865;52.552;13.434;2023-02-20T03:42:56;8.33;;;5.40;;
13588;SDS011;6865;52.552;13.434;2023-02-20T03:45:45;7.57;;;5.23;;
13588;SDS011;6865;52.552;13.434;2023-02-20T03:48:38;7.27;;;5.33;;
13588;SDS011;6865;52.552;13.434;2023-02-20T03:51:09;10.03;;;5.97;;
13588;SDS011;6865;52.552;13.434;2023-02-20T03:53:37;7.47;;;5.43;;
13588;SDS011;6865;52.552;13.434;2023-02-20T03:56:07;7.30;;;5.50;;
13588;SDS011;6865;52.552;13.434;2023-02-20T03:58:38;9.10;;;5.50;;
13588;SDS011;6865;52.552;13.434;2023-02-20T04:01:07;10.47;;;5.73;;
13588;SDS011;6865;52.552;13.434;2023-02-20T04:03:38;8.10;;;5.83;;
13588;SDS011;6865;52.552;13.434;2023-02-20T04:06:09;7.30;;;6.33;;
13588;SDS011;6865;52.552;13.434;2023-02-20T04:08:38;7.77;;;5.93;;
13588;SDS011;6865;52.552;13.434;2023-02-20T04:11:21;9.80;;;6.13;;
13588;SDS011;6865;52.552;13.434;2023-02-20T04:13:59;7.97;;;5.87;;
13588;SDS011;6865;52.552;13.434;2023-02-20T04:16:27;7.83;;;5.50;;
13588;SDS011;6865;52.552;13.434;2023-02-20T04:18:55;7.23;;;5.50;;
13588;SDS011;6865;52.552;13.434;2023-02-20T04:21:37;7.63;;;5.60;;
13588;SDS011;6865;52.552;13.434;2023-02-20T04:24:15;8.57;;;6.00;;
13588;SDS011;6865;52.552;13.434;2023-02-20T04:27:03;10.67;;;6.23;;
13588;SDS011;6865;52.552;13.434;2023-02-20T04:29:30;8.93;;;6.40;;
13588;SDS011;6865;52.552;13.434;2023-02-20T04:31:57;11.53;;;6.30;;
13588;SDS011;6865;52.552;13.434;2023-02-20T04:34:24;8.10;;;5.70;;
13588;SDS011;6865;52.552;13.434;2023-02-20T04:36:57;8.03;;;6.17;;
13588;SDS011;6865;52.552;13.434;2023-02-20T04:39:32;7.77;;;5.77;;
13588;SDS011;6865;52.552;13.434;2023-02-20T04:41:58;9.33;;;6.23;;
13588;SDS011;6865;52.552;13.434;2023-02-20T04:44:25;8.37;;;6.33;;
13588;SDS011;6865;52.552;13.434;2023-02-20T04:46:59;9.37;;;6.23;;
13588;SDS011;6865;52.552;13.434;2023-02-20T04:49:26;8.03;;;6.43;;
13588;SDS011;6865;52.552;13.434;2023-02-20T04:51:53;10.13;;;6.20;;
13588;SDS011;6865;52.552;13.434;2023-02-20T04:54:21;8.37;;;5.43;;
13588;SDS011;6865;52.552;13.434;2023-02-20T04:56:48;7.67;;;5.83;;
13588;SDS011;6865;52.552;13.434;2023-02-20T04:59:15;7.40;;;5.43;;
13588;SDS011;6865;52.552;13.434;2023-02-20T05:01:41;8.07;;;6.00;;
13588;SDS011;6865;52.552;13.434;2023-02-20T05:04:13;8.67;;;5.67;;
13588;SDS011;6865;52.552;13.434;2023-02-20T05:06:41;8.00;;;6.07;;
13588;SDS011;6865;52.552;13.434;2023-02-20T05:09:10;7.10;;;5.77;;
13588;SDS011;6865;52.552;13.434;2023-02-20T05:11:37;8.23;;;5.70;;
13588;SDS011;6865;52.552;13.434;2023-02-20T05:14:04;8.10;;;5.90;;
13588;SDS011;6865;52.552;13.434;2023-02-20T05:16:31;8.27;;;6.07;;
13588;SDS011;6865;52.552;13.434;2023-02-20T05:18:58;8.50;;;5.60;;
13588;SDS011;6865;52.552;13.434;2023-02-20T05:21:26;8.87;;;6.10;;
13588;SDS011;6865;52.552;13.434;2023-02-20T05:24:11;9.33;;;6.00;;
13588;SDS011;6865;52.552;13.434;2023-02-20T05:26:38;8.83;;;5.87;;
13588;SDS011;6865;52.552;13.434;2023-02-20T05:29:05;7.03;;;5.80;;
13588;SDS011;6865;52.552;13.434;2023-02-20T05:31:34;6.87;;;5.93;;
13588;SDS011;6865;52.552;13.434;2023-02-20T05:34:01;10.17;;;6.30;;
13588;SDS011;6865;52.552;13.434;2023-02-20T05:36:28;8.10;;;6.30;;
13588;SDS011;6865;52.552;13.434;2023-02-20T05:38:55;8.10;;;6.40;;
13588;SDS011;6865;52.552;13.434;2023-02-20T05:41:22;10.13;;;6.60;;
13588;SDS011;6865;52.552;13.434;2023-02-20T05:43:48;7.70;;;6.47;;
13588;SDS011;6865;52.552;13.434;2023-02-20T05:46:15;10.03;;;7.17;;
13588;SDS011;6865;52.552;13.434;2023-02-20T05:48:42;9.67;;;6.80;;
13588;SDS011;6865;52.552;13.434;2023-02-20T05:51:17;7.70;;;6.60;;
13588;SDS011;6865;52.552;13.434;2023-02-20T05:53:48;8.57;;;7.10;;
13588;SDS011;6865;52.552;13.434;2023-02-20T05:56:15;10.13;;;6.60;;
13588;SDS011;6865;52.552;13.434;2023-02-20T05:58:42;8.23;;;6.93;;
13588;SDS011;6865;52.552;13.434;2023-02-20T06:01:23;9.40;;;6.93;;
13588;SDS011;6865;52.552;13.434;2023-02-20T06:03:52;8.80;;;6.60;;
13588;SDS011;6865;52.552;13.434;2023-02-20T06:06:19;8.77;;;6.73;;
13588;SDS011;6865;52.552;13.434;2023-02-20T06:08:46;8.00;;;6.37;;
13588;SDS011;6865;52.552;13.434;2023-02-20T06:11:14;8.13;;;6.40;;
13588;SDS011;6865;52.552;13.434;2023-02-20T06:13:41;9.57;;;7.57;;
13588;SDS011;6865;52.552;13.434;2023-02-20T06:16:09;8.10;;;6.27;;
13588;SDS011;6865;52.552;13.434;2023-02-20T06:18:38;10.43;;;6.57;;
13588;SDS011;6865;52.552;13.434;2023-02-20T06:21:09;9.40;;;6.53;;
13588;SDS011;6865;52.552;13.434;2023-02-20T06:23:37;9.00;;;7.50;;
13588;SDS011;6865;52.552;13.434;2023-02-20T06:26:04;8.67;;;6.57;;
13588;SDS011;6865;52.552;13.434;2023-02-20T06:28:32;7.80;;;6.43;;
13588;SDS011;6865;52.552;13.434;2023-02-20T06:30:58;11.87;;;7.07;;
13588;SDS011;6865;52.552;13.434;2023-02-20T06:33:27;9.13;;;7.13;;
13588;SDS011;6865;52.552;13.434;2023-02-20T06:35:54;9.67;;;6.90;;
13588;SDS011;6865;52.552;13.434;2023-02-20T06:38:21;7.67;;;6.53;;
13588;SDS011;6865;52.552;13.434;2023-02-20T06:40:48;9.03;;;7.03;;
13588;SDS011;6865;52.552;13.434;2023-02-20T06:43:15;17.67;;;7.67;;
13588;SDS011;6865;52.552;13.434;2023-02-20T06:45:42;10.47;;;7.73;;
13588;SDS011;6865;52.552;13.434;2023-02-20T06:48:09;10.70;;;7.77;;
13588;SDS011;6865;52.552;13.434;2023-02-20T06:50:36;9.70;;;7.63;;
13588;SDS011;6865;52.552;13.434;2023-02-20T06:53:02;12.40;;;8.20;;
13588;SDS011;6865;52.552;13.434;2023-02-20T06:55:29;10.30;;;8.33;;
13588;SDS011;6865;52.552;13.434;2023-02-20T06:57:56;10.93;;;8.10;;
13588;SDS011;6865;52.552;13.434;2023-02-20T07:00:23;11.00;;;8.80;;
13588;SDS011;6865;52.552;13.434;2023-02-20T07:02:50;10.70;;;8.30;;
13588;SDS011;6865;52.552;13.434;2023-02-20T07:05:17;14.27;;;8.80;;
13588;SDS011;6865;52.552;13.434;2023-02-20T07:07:44;10.40;;;8.70;;
13588;SDS011;6865;52.552;13.434;2023-02-20T07:10:11;11.73;;;9.30;;
13588;SDS011;6865;52.552;13.434;2023-02-20T07:12:37;13.33;;;9.83;;
13588;SDS011;6865;52.552;13.434;2023-02-20T07:15:05;14.30;;;9.37;;
13588;SDS011;6865;52.552;13.434;2023-02-20T07:17:33;11.70;;;9.73;;
13588;SDS011;6865;52.552;13.434;2023-02-20T07:19:59;12.30;;;9.70;;
13588;SDS011;6865;52.552;13.434;2023-02-20T07:22:26;11.43;;;9.23;;
13588;SDS011;6865;52.552;13.434;2023-02-20T07:24:53;12.37;;;9.30;;
13588;SDS011;6865;52.552;13.434;2023-02-20T07:27:20;13.13;;;9.43;;
13588;SDS011;6865;52.552;13.434;2023-02-20T07:29:48;10.57;;;8.77;;
13588;SDS011;6865;52.552;13.434;2023-02-20T07:32:15;12.40;;;9.33;;
13588;SDS011;6865;52.552;13.434;2023-02-20T07:34:46;10.90;;;9.33;;
13588;SDS011;6865;52.552;13.434;2023-02-20T07:37:29;12.20;;;9.77;;
13588;SDS011;6865;52.552;13.434;2023-02-20T07:39:57;11.27;;;9.33;;
13588;SDS011;6865;52.552;13.434;2023-02-20T07:42:23;11.90;;;9.13;;
13588;SDS011;6865;52.552;13.434;2023-02-20T07:44:50;11.73;;;8.90;;
13588;SDS011;6865;52.552;13.434;2023-02-20T07:47:17;12.53;;;9.00;;
13588;SDS011;6865;52.552;13.434;2023-02-20T07:49:43;11.97;;;9.13;;
13588;SDS011;6865;52.552;13.434;2023-02-20T07:52:10;11.57;;;8.30;;
13588;SDS011;6865;52.552;13.434;2023-02-20T07:54:37;11.40;;;9.00;;
13588;SDS011;6865;52.552;13.434;2023-02-20T07:57:03;10.03;;;8.60;;
13588;SDS011;6865;52.552;13.434;2023-02-20T07:59:30;11.17;;;8.30;;
13588;SDS011;6865;52.552;13.434;2023-02-20T08:01:57;11.43;;;8.40;;
13588;SDS011;6865;52.552;13.434;2023-02-20T08:04:23;10.33;;;8.17;;
13588;SDS011;6865;52.552;13.434;2023-02-20T08:06:50;9.77;;;8.17;;
13588;SDS011;6865;52.552;13.434;2023-02-20T08:09:16;10.13;;;8.10;;
13588;SDS011;6865;52.552;13.434;2023-02-20T08:11:43;9.73;;;7.70;;
13588;SDS011;6865;52.552;13.434;2023-02-20T08:14:10;8.27;;;7.33;;
13588;SDS011;6865;52.552;13.434;2023-02-20T08:16:39;9.23;;;7.33;;
13588;SDS011;6865;52.552;13.434;2023-02-20T08:19:05;8.27;;;6.97;;
13588;SDS011;6865;52.552;13.434;2023-02-20T08:21:33;8.50;;;7.13;;
13588;SDS011;6865;52.552;13.434;2023-02-20T08:23:59;12.67;;;7.93;;
13588;SDS011;6865;52.552;13.434;2023-02-20T08:26:26;10.10;;;7.83;;
13588;SDS011;6865;52.552;13.434;2023-02-20T08:28:53;10.07;;;7.70;;
13588;SDS011;6865;52.552;13.434;2023-02-20T08:31:19;9.23;;;6.40;;
13588;SDS011;6865;52.552;13.434;2023-02-20T08:33:57;10.40;;;7.13;;
13588;SDS011;6865;52.552;13.434;2023-02-20T08:36:24;9.03;;;6.23;;
13588;SDS011;6865;52.552;13.434;2023-02-20T08:38:50;11.40;;;6.57;;
13588;SDS011;6865;52.552;13.434;2023-02-20T08:41:17;9.67;;;6.80;;
13588;SDS011;6865;52.552;13.434;2023-02-20T08:43:43;9.60;;;6.60;;
13588;SDS011;6865;52.552;13.434;2023-02-20T08:46:10;8.87;;;6.57;;
13588;SDS011;6865;52.552;13.434;2023-02-20T08:48:38;9.13;;;6.37;;
13588;SDS011;6865;52.552;13.434;2023-02-20T08:51:05;7.77;;;6.20;;
13588;SDS011;6865;52.552;13.434;2023-02-20T08:53:32;9.80;;;6.47;;
13588;SDS011;6865;52.552;13.434;2023-02-20T08:55:59;9.37;;;6.53;;
13588;SDS011;6865;52.552;13.434;2023-02-20T08:58:26;11.37;;;6.07;;
13588;SDS011;6865;52.552;13.434;2023-02-20T09:00:53;7.97;;;6.20;;
13588;SDS011;6865;52.552;13.434;2023-02-20T09:03:20;8.37;;;6.13;;
13588;SDS011;6865;52.552;13.434;2023-02-20T09:05:47;8.83;;;6.10;;
13588;SDS011;6865;52.552;13.434;2023-02-20T09:08:14;9.60;;;6.83;;
13588;SDS011;6865;52.552;13.434;2023-02-20T09:10:41;10.10;;;5.77;;
13588;SDS011;6865;52.552;13.434;2023-02-20T09:13:09;8.77;;;6.43;;
13588;SDS011;6865;52.552;13.434;2023-02-20T09:15:36;6.90;;;5.47;;
13588;SDS011;6865;52.552;13.434;2023-02-20T09:18:10;6.20;;;5.37;;
13588;SDS011;6865;52.552;13.434;2023-02-20T09:20:38;7.30;;;5.67;;
13588;SDS011;6865;52.552;13.434;2023-02-20T09:23:05;7.73;;;5.13;;
13588;SDS011;6865;52.552;13.434;2023-02-20T09:25:32;6.70;;;5.57;;
13588;SDS011;6865;52.552;13.434;2023-02-20T09:27:59;7.20;;;5.40;;
13588;SDS011;6865;52.552;13.434;2023-02-20T09:30:25;7.67;;;5.33;;
13588;SDS011;6865;52.552;13.434;2023-02-20T09:32:53;7.90;;;5.57;;
13588;SDS011;6865;52.552;13.434;2023-02-20T09:35:21;6.47;;;5.40;;
13588;SDS011;6865;52.552;13.434;2023-02-20T09:37:51;8.53;;;5.23;;
13588;SDS011;6865;52.552;13.434;2023-02-20T09:40:23;7.33;;;5.27;;
13588;SDS011;6865;52.552;13.434;2023-02-20T09:45:43;5.70;;;4.67;;
13588;SDS011;6865;52.552;13.434;2023-02-20T09:48:27;6.07;;;4.90;;
13588;SDS011;6865;52.552;13.434;2023-02-20T09:50:58;7.40;;;4.57;;
13588;SDS011;6865;52.552;13.434;2023-02-20T09:53:38;7.03;;;4.87;;
13588;SDS011;6865;52.552;13.434;2023-02-20T09:56:16;6.20;;;5.37;;
13588;SDS011;6865;52.552;13.434;2023-02-20T09:58:52;11.40;;;5.07;;
13588;SDS011;6865;52.552;13.434;2023-02-20T10:01:25;7.07;;;4.60;;
13588;SDS011;6865;52.552;13.434;2023-02-20T10:03:55;6.63;;;5.10;;
13588;SDS011;6865;52.552;13.434;2023-02-20T10:06:25;7.60;;;4.90;;
13588;SDS011;6865;52.552;13.434;2023-02-20T10:08:54;6.57;;;4.50;;
13588;SDS011;6865;52.552;13.434;2023-02-20T10:11:43;8.47;;;4.93;;
13588;SDS011;6865;52.552;13.434;2023-02-20T10:14:23;8.73;;;4.80;;
13588;SDS011;6865;52.552;13.434;2023-02-20T10:17:11;6.90;;;4.80;;
13588;SDS011;6865;52.552;13.434;2023-02-20T10:20:06;6.43;;;5.20;;
13588;SDS011;6865;52.552;13.434;2023-02-20T10:22:42;7.07;;;5.13;;
13588;SDS011;6865;52.552;13.434;2023-02-20T10:25:19;8.17;;;5.00;;
13588;SDS011;6865;52.552;13.434;2023-02-20T10:27:59;7.17;;;4.80;;
13588;SDS011;6865;52.552;13.434;2023-02-20T10:30:29;7.33;;;4.63;;
13588;SDS011;6865;52.552;13.434;2023-02-20T10:33:02;9.90;;;4.50;;
13588;SDS011;6865;52.552;13.434;2023-02-20T10:35:46;6.27;;;4.60;;
13588;SDS011;6865;52.552;13.434;2023-02-20T10:38:22;9.53;;;4.53;;
13588;SDS011;6865;52.552;13.434;2023-02-20T10:40:56;9.53;;;4.87;;
13588;SDS011;6865;52.552;13.434;2023-02-20T10:43:34;5.43;;;4.53;;
13588;SDS011;6865;52.552;13.434;2023-02-20T10:46:08;9.07;;;4.87;;
13588;SDS011;6865;52.552;13.434;2023-02-20T10:48:46;5.63;;;4.47;;
13588;SDS011;6865;52.552;13.434;2023-02-20T10:51:21;6.70;;;4.80;;
13588;SDS011;6865;52.552;13.434;2023-02-20T10:57:13;8.17;;;4.87;;
13588;SDS011;6865;52.552;13.434;2023-02-20T10:59:50;10.03;;;4.47;;
13588;SDS011;6865;52.552;13.434;2023-02-20T11:02:32;8.43;;;4.60;;
13588;SDS011;6865;52.552;13.434;2023-02-20T11:05:04;7.33;;;4.53;;
13588;SDS011;6865;52.552;13.434;2023-02-20T11:07:34;7.57;;;4.77;;
13588;SDS011;6865;52.552;13.434;2023-02-20T11:10:00;6.37;;;4.43;;
13588;SDS011;6865;52.552;13.434;2023-02-20T11:12:29;7.30;;;4.60;;
13588;SDS011;6865;52.552;13.434;2023-02-20T11:15:06;7.37;;;4.03;;
13588;SDS011;6865;52.552;13.434;2023-02-20T11:17:38;7.23;;;4.30;;
13588;SDS011;6865;52.552;13.434;2023-02-20T11:22:58;6.90;;;4.63;;
13588;SDS011;6865;52.552;13.434;2023-02-20T11:25:29;7.67;;;4.50;;
13588;SDS011;6865;52.552;13.434;2023-02-20T11:28:08;7.97;;;4.37;;
13588;SDS011;6865;52.552;13.434;2023-02-20T11:30:39;5.87;;;4.10;;
13588;SDS011;6865;52.552;13.434;2023-02-20T11:33:14;9.93;;;4.50;;
13588;SDS011;6865;52.552;13.434;2023-02-20T11:35:44;6.43;;;4.70;;
13588;SDS011;6865;52.552;13.434;2023-02-20T11:43:23;7.60;;;4.40;;
13588;SDS011;6865;52.552;13.434;2023-02-20T11:46:08;11.00;;;5.23;;
13588;SDS011;6865;52.552;13.434;2023-02-20T11:48:56;8.37;;;5.00;;
13588;SDS011;6865;52.552;13.434;2023-02-20T11:51:35;9.10;;;4.87;;
13588;SDS011;6865;52.552;13.434;2023-02-20T11:54:21;7.63;;;5.00;;
13588;SDS011;6865;52.552;13.434;2023-02-20T12:02:46;7.43;;;4.67;;
13588;SDS011;6865;52.552;13.434;2023-02-20T12:05:19;6.63;;;4.47;;
13588;SDS011;6865;52.552;13.434;2023-02-20T12:10:23;7.43;;;5.63;;
13588;SDS011;6865;52.552;13.434;2023-02-20T12:12:57;9.17;;;5.63;;
13588;SDS011;6865;52.552;13.434;2023-02-20T12:15:27;10.63;;;6.10;;
13588;SDS011;6865;52.552;13.434;2023-02-20T12:18:04;8.13;;;6.50;;
13588;SDS011;6865;52.552;13.434;2023-02-20T12:20:52;9.93;;;7.10;;
13588;SDS011;6865;52.552;13.434;2023-02-20T12:23:37;9.73;;;6.67;;
13588;SDS011;6865;52.552;13.434;2023-02-20T12:29:15;9.37;;;7.43;;
13588;SDS011;6865;52.552;13.434;2023-02-20T12:31:48;12.13;;;7.33;;
13588;SDS011;6865;52.552;13.434;2023-02-20T12:34:29;8.93;;;6.90;;
13588;SDS011;6865;52.552;13.434;2023-02-20T12:39:49;11.30;;;7.00;;
13588;SDS011;6865;52.552;13.434;2023-02-20T12:42:39;10.03;;;7.37;;
13588;SDS011;6865;52.552;13.434;2023-02-20T12:48:11;9.73;;;6.70;;
13588;SDS011;6865;52.552;13.434;2023-02-20T12:51:11;12.03;;;7.53;;
13588;SDS011;6865;52.552;13.434;2023-02-20T12:59:46;12.50;;;7.87;;
13588;SDS011;6865;52.552;13.434;2023-02-20T13:02:29;10.47;;;7.77;;
13588;SDS011;6865;52.552;13.434;2023-02-20T13:05:10;11.17;;;8.47;;
13588;SDS011;6865;52.552;13.434;2023-02-20T13:07:41;10.23;;;8.43;;
13588;SDS011;6865;52.552;13.434;2023-02-20T13:10:19;16.67;;;8.83;;
13588;SDS011;6865;52.552;13.434;2023-02-20T13:12:53;14.30;;;9.70;;
13588;SDS011;6865;52.552;13.434;2023-02-20T13:15:35;11.93;;;9.33;;
13588;SDS011;6865;52.552;13.434;2023-02-20T13:18:22;14.07;;;9.77;;
13588;SDS011;6865;52.552;13.434;2023-02-20T13:21:16;12.57;;;9.47;;
13588;SDS011;6865;52.552;13.434;2023-02-20T13:23:47;13.77;;;9.80;;
13588;SDS011;6865;52.552;13.434;2023-02-20T13:29:12;13.83;;;10.30;;
13588;SDS011;6865;52.552;13.434;2023-02-20T13:31:43;13.30;;;9.83;;
13588;SDS011;6865;52.552;13.434;2023-02-20T13:36:45;14.23;;;10.50;;
13588;SDS011;6865;52.552;13.434;2023-02-20T13:42:00;14.90;;;10.67;;
13588;SDS011;6865;52.552;13.434;2023-02-20T13:47:19;14.93;;;10.47;;
13588;SDS011;6865;52.552;13.434;2023-02-20T13:50:03;15.80;;;11.40;;
13588;SDS011;6865;52.552;13.434;2023-02-20T13:52:53;14.70;;;10.97;;
13588;SDS011;6865;52.552;13.434;2023-02-20T13:55:23;16.00;;;11.60;;
13588;SDS011;6865;52.552;13.434;2023-02-20T14:03:18;13.23;;;11.13;;
13588;SDS011;6865;52.552;13.434;2023-02-20T14:05:54;16.60;;;11.80;;
13588;SDS011;6865;52.552;13.434;2023-02-20T14:08:41;12.30;;;10.00;;
13588;SDS011;6865;52.552;13.434;2023-02-20T14:11:10;13.47;;;10.83;;
13588;SDS011;6865;52.552;13.434;2023-02-20T14:13:43;16.67;;;11.93;;
13588;SDS011;6865;52.552;13.434;2023-02-20T14:16:23;12.47;;;10.37;;
13588;SDS011;6865;52.552;13.434;2023-02-20T14:18:57;14.70;;;10.80;;
13588;SDS011;6865;52.552;13.434;2023-02-20T14:21:26;14.40;;;10.90;;
13588;SDS011;6865;52.552;13.434;2023-02-20T14:23:55;15.07;;;11.33;;
13588;SDS011;6865;52.552;13.434;2023-02-20T14:26:23;15.97;;;10.60;;
13588;SDS011;6865;52.552;13.434;2023-02-20T14:28:53;13.47;;;10.87;;
13588;SDS011;6865;52.552;13.434;2023-02-20T14:31:23;13.90;;;10.10;;
13588;SDS011;6865;52.552;13.434;2023-02-20T14:33:54;13.20;;;9.97;;
13588;SDS011;6865;52.552;13.434;2023-02-20T14:36:38;15.47;;;9.80;;
13588;SDS011;6865;52.552;13.434;2023-02-20T14:39:18;13.53;;;8.70;;
13588;SDS011;6865;52.552;13.434;2023-02-20T14:42:01;12.40;;;8.53;;
13588;SDS011;6865;52.552;13.434;2023-02-20T14:44:30;14.63;;;9.83;;
13588;SDS011;6865;52.552;13.434;2023-02-20T14:47:04;16.30;;;9.33;;
13588;SDS011;6865;52.552;13.434;2023-02-20T14:49:35;12.60;;;8.27;;
13588;SDS011;6865;52.552;13.434;2023-02-20T14:52:15;10.47;;;8.03;;
13588;SDS011;6865;52.552;13.434;2023-02-20T14:54:57;12.10;;;9.17;;
13588;SDS011;6865;52.552;13.434;2023-02-20T14:57:29;11.30;;;7.80;;
13588;SDS011;6865;52.552;13.434;2023-02-20T15:03:00;11.43;;;8.10;;
13588;SDS011;6865;52.552;13.434;2023-02-20T15:05:32;9.83;;;7.80;;
13588;SDS011;6865;52.552;13.434;2023-02-20T15:08:00;9.93;;;7.07;;
13588;SDS011;6865;52.552;13.434;2023-02-20T15:10:49;9.37;;;7.17;;
13588;SDS011;6865;52.552;13.434;2023-02-20T15:13:21;12.70;;;7.40;;
13588;SDS011;6865;52.552;13.434;2023-02-20T15:16:04;10.37;;;7.10;;
13588;SDS011;6865;52.552;13.434;2023-02-20T15:18:39;11.50;;;8.03;;
13588;SDS011;6865;52.552;13.434;2023-02-20T15:21:07;9.20;;;7.17;;
13588;SDS011;6865;52.552;13.434;2023-02-20T15:23:37;9.20;;;6.90;;
13588;SDS011;6865;52.552;13.434;2023-02-20T15:31:57;8.43;;;6.87;;
13588;SDS011;6865;52.552;13.434;2023-02-20T15:34:35;8.93;;;6.50;;
13588;SDS011;6865;52.552;13.434;2023-02-20T15:40:15;10.23;;;7.40;;
13588;SDS011;6865;52.552;13.434;2023-02-20T15:42:45;8.17;;;6.77;;
13588;SDS011;6865;52.552;13.434;2023-02-20T15:45:13;10.23;;;6.90;;
13588;SDS011;6865;52.552;13.434;2023-02-20T15:47:39;9.20;;;7.33;;
13588;SDS011;6865;52.552;13.434;2023-02-20T15:50:06;8.10;;;6.33;;
13588;SDS011;6865;52.552;13.434;2023-02-20T15:52:33;9.57;;;6.80;;
13588;SDS011;6865;52.552;13.434;2023-02-20T15:55:00;9.70;;;6.97;;
13588;SDS011;6865;52.552;13.434;2023-02-20T15:57:27;9.27;;;6.97;;
13588;SDS011;6865;52.552;13.434;2023-02-20T15:59:54;10.53;;;6.63;;
13588;SDS011;6865;52.552;13.434;2023-02-20T16:02:21;9.70;;;6.73;;
13588;SDS011;6865;52.552;13.434;2023-02-20T16:04:50;13.50;;;7.07;;
13588;SDS011;6865;52.552;13.434;2023-02-20T16:07:18;12.13;;;7.43;;
13588;SDS011;6865;52.552;13.434;2023-02-20T16:09:45;10.83;;;7.90;;
13588;SDS011;6865;52.552;13.434;2023-02-20T16:12:13;9.37;;;7.50;;
13588;SDS011;6865;52.552;13.434;2023-02-20T16:14:50;11.13;;;8.20;;
13588;SDS011;6865;52.552;13.434;2023-02-20T16:17:21;10.07;;;7.53;;
13588;SDS011;6865;52.552;13.434;2023-02-20T16:19:50;10.33;;;7.67;;
13588;SDS011;6865;52.552;13.434;2023-02-20T16:22:17;11.00;;;7.90;;
13588;SDS011;6865;52.552;13.434;2023-02-20T16:24:48;9.37;;;7.87;;
13588;SDS011;6865;52.552;13.434;2023-02-20T16:27:25;10.07;;;7.60;;
13588;SDS011;6865;52.552;13.434;2023-02-20T16:29:53;10.40;;;8.63;;
13588;SDS011;6865;52.552;13.434;2023-02-20T16:32:22;8.97;;;8.00;;
13588;SDS011;6865;52.552;13.434;2023-02-20T16:34:51;13.33;;;8.83;;
13588;SDS011;6865;52.552;13.434;2023-02-20T16:37:20;12.37;;;7.97;;
13588;SDS011;6865;52.552;13.434;2023-02-20T16:39:47;11.10;;;8.57;;